createdAt,value
2018-02-20T00:00:42.333Z,28.70
2018-02-20T00:03:09.870Z,31.15
2018-02-20T00:05:37.454Z,31.90
2018-02-20T00:08:05.035Z,32.22
2018-02-20T00:10:33.405Z,30.85
2018-02-20T00:13:00.984Z,33.97
2018-02-20T00:15:28.580Z,33.20
2018-02-20T00:17:56.135Z,32.33
2018-02-20T00:20:23.887Z,31.37
2018-02-20T00:22:51.439Z,32.08
2018-02-20T00:25:19.011Z,32.80
2018-02-20T00:27:46.846Z,30.37
2018-02-20T00:30:14.447Z,31.70
2018-02-20T00:32:42.105Z,31.62
2018-02-20T00:35:09.642Z,29.02
2018-02-20T00:37:37.975Z,27.70
2018-02-20T00:40:05.610Z,32.40
2018-02-20T00:42:33.179Z,26.33
2018-02-20T00:45:00.784Z,26.73
2018-02-20T00:47:28.317Z,26.40
2018-02-20T00:49:55.928Z,27.25
2018-02-20T00:52:23.523Z,26.05
2018-02-20T00:54:51.225Z,27.95
2018-02-20T00:57:18.877Z,27.10
2018-02-20T00:59:46.998Z,27.37
2018-02-20T01:02:14.566Z,29.80
2018-02-20T01:04:42.230Z,27.73
2018-02-20T01:07:09.825Z,31.12
2018-02-20T01:09:37.722Z,31.12
2018-02-20T01:12:05.275Z,32.13
2018-02-20T01:14:33.174Z,31.98
2018-02-20T01:17:00.743Z,32.05
2018-02-20T01:19:28.292Z,31.80
2018-02-20T01:21:55.837Z,31.48
2018-02-20T01:24:23.506Z,33.50
2018-02-20T01:26:51.075Z,36.05
2018-02-20T01:29:18.632Z,36.53
2018-02-20T01:31:47.004Z,36.55
2018-02-20T01:34:15.932Z,30.35
2018-02-20T01:36:43.513Z,34.53
2018-02-20T01:39:11.062Z,33.90
2018-02-20T01:41:38.615Z,33.70
2018-02-20T01:44:06.400Z,35.20
2018-02-20T01:46:33.964Z,38.40
2018-02-20T01:49:01.526Z,38.08
2018-02-20T01:51:29.510Z,40.40
2018-02-20T01:53:57.053Z,36.40
2018-02-20T01:56:25.581Z,35.08
2018-02-20T01:58:53.162Z,38.15
2018-02-20T02:01:20.730Z,40.50
2018-02-20T02:03:49.128Z,38.45
2018-02-20T02:06:17.529Z,39.58
2018-02-20T02:08:45.085Z,41.10
2018-02-20T02:11:13.406Z,38.00
2018-02-20T02:13:40.978Z,41.55
2018-02-20T02:16:08.553Z,39.80
2018-02-20T02:18:36.086Z,40.70
2018-02-20T02:21:03.743Z,40.72
2018-02-20T02:23:31.401Z,36.78
2018-02-20T02:25:58.973Z,39.13
2018-02-20T02:28:26.577Z,37.25
2018-02-20T02:30:54.172Z,36.83
2018-02-20T02:33:21.724Z,37.80
2018-02-20T02:35:49.281Z,35.70
2018-02-20T02:38:17.743Z,37.50
2018-02-20T02:40:45.888Z,32.35
2018-02-20T02:43:13.560Z,41.13
2018-02-20T02:45:41.121Z,34.38
2018-02-20T02:48:08.689Z,37.60
2018-02-20T02:50:36.356Z,36.30
2018-02-20T02:53:03.952Z,40.10
2018-02-20T02:55:32.525Z,40.30
2018-02-20T02:58:00.125Z,37.20
2018-02-20T03:00:27.732Z,38.72
2018-02-20T03:02:55.261Z,35.20
2018-02-20T03:05:22.871Z,38.15
2018-02-20T03:07:50.485Z,39.30
2018-02-20T03:10:18.221Z,38.85
2018-02-20T03:12:47.185Z,38.63
2018-02-20T03:15:14.772Z,38.15
2018-02-20T03:17:42.298Z,38.05
2018-02-20T03:20:10.186Z,36.15
2018-02-20T03:22:38.714Z,36.20
2018-02-20T03:25:06.264Z,36.28
2018-02-20T03:27:33.843Z,37.95
2018-02-20T03:30:01.410Z,40.03
2018-02-20T03:32:28.983Z,41.40
2018-02-20T03:34:57.331Z,39.92
2018-02-20T03:37:24.883Z,41.70
2018-02-20T03:39:52.450Z,40.72
2018-02-20T03:42:20.887Z,40.88
2018-02-20T03:44:49.422Z,40.20
2018-02-20T03:47:17.935Z,40.58
2018-02-20T03:49:45.839Z,36.83
2018-02-20T03:52:13.497Z,35.20
2018-02-20T03:54:41.034Z,36.72
2018-02-20T03:57:08.626Z,40.90
2018-02-20T03:59:36.181Z,36.45
2018-02-20T04:02:03.748Z,35.75
2018-02-20T04:04:32.134Z,35.20
2018-02-20T04:07:00.487Z,36.63
2018-02-20T04:09:28.816Z,35.55
2018-02-20T04:11:56.436Z,34.50
2018-02-20T04:14:23.978Z,29.95
2018-02-20T04:16:51.553Z,33.17
2018-02-20T04:19:19.131Z,30.08
2018-02-20T04:21:47.344Z,28.65
2018-02-20T04:24:14.915Z,29.90
2018-02-20T04:26:42.544Z,28.30
2018-02-20T04:29:10.088Z,29.85
2018-02-20T04:31:37.699Z,28.17
2018-02-20T04:34:05.278Z,26.00
2018-02-20T04:36:32.954Z,27.00
2018-02-20T04:39:00.558Z,28.00
2018-02-20T04:41:28.253Z,29.00
2018-02-20T04:43:55.788Z,26.87
2018-02-20T04:46:23.337Z,28.10
2018-02-20T04:48:50.921Z,28.12
2018-02-20T04:51:18.507Z,29.02
2018-02-20T04:53:47.018Z,28.20
2018-02-20T04:56:14.614Z,31.40
2018-02-20T04:58:42.162Z,32.75
2018-02-20T05:01:09.718Z,28.65
2018-02-20T05:03:37.399Z,30.27
2018-02-20T05:06:04.964Z,30.02
2018-02-20T05:08:32.533Z,32.05
2018-02-20T05:11:00.121Z,28.85
2018-02-20T05:13:27.680Z,29.25
2018-02-20T05:15:55.218Z,29.05
2018-02-20T05:18:22.797Z,31.12
2018-02-20T05:20:51.294Z,32.53
2018-02-20T05:23:18.892Z,29.80
2018-02-20T05:25:47.201Z,29.87
2018-02-20T05:28:14.777Z,31.10
2018-02-20T05:30:42.331Z,31.17
2018-02-20T05:33:09.909Z,26.80
2018-02-20T05:35:37.448Z,31.60
2018-02-20T05:38:04.977Z,34.38
2018-02-20T05:40:32.997Z,33.75
2018-02-20T05:43:00.579Z,32.75
2018-02-20T05:45:28.159Z,30.30
2018-02-20T05:47:55.890Z,35.35
2018-02-20T05:50:23.442Z,34.78
2018-02-20T05:52:50.985Z,35.85
2018-02-20T05:55:18.582Z,36.40
2018-02-20T05:57:46.893Z,36.33
2018-02-20T06:00:14.481Z,39.22
2018-02-20T06:02:42.094Z,38.22
2018-02-20T06:05:09.737Z,32.72
2018-02-20T06:07:39.379Z,39.00
2018-02-20T06:10:07.031Z,37.05
2018-02-20T06:12:34.729Z,38.33
2018-02-20T06:15:02.275Z,35.85
2018-02-20T06:17:29.884Z,33.30
2018-02-20T06:19:57.452Z,34.28
2018-02-20T06:22:25.020Z,38.53
2018-02-20T06:24:53.150Z,36.00
2018-02-20T06:27:20.778Z,37.63
2018-02-20T06:29:53.134Z,37.30
2018-02-20T06:32:20.875Z,36.97
2018-02-20T06:34:48.563Z,36.22
2018-02-20T06:37:17.398Z,39.83
2018-02-20T06:39:45.055Z,36.40
2018-02-20T06:42:13.931Z,29.02
2018-02-20T06:44:42.245Z,30.12
2018-02-20T06:47:10.154Z,31.25
2018-02-20T06:49:38.490Z,30.77
2018-02-20T06:52:06.953Z,30.48
2018-02-20T06:54:34.917Z,29.45
2018-02-20T06:57:02.459Z,30.62
2018-02-20T06:59:30.128Z,33.47
2018-02-20T07:01:57.712Z,37.53
2018-02-20T07:04:26.214Z,39.20
2018-02-20T07:06:53.742Z,39.13
2018-02-20T07:09:21.634Z,40.97
2018-02-20T07:11:50.095Z,41.15
2018-02-20T07:14:18.850Z,38.55
2018-02-20T07:16:46.799Z,41.22
2018-02-20T07:19:15.138Z,40.88
2018-02-20T07:21:43.309Z,40.30
2018-02-20T07:24:10.957Z,36.90
2018-02-20T07:26:38.490Z,36.17
2018-02-20T07:29:06.040Z,36.78
2018-02-20T07:31:33.677Z,32.45
2018-02-20T07:34:01.236Z,32.22
2018-02-20T07:36:28.796Z,33.92
2018-02-20T07:38:56.379Z,27.05
2018-02-20T07:41:24.004Z,30.98
2018-02-20T07:43:51.614Z,31.20
2018-02-20T07:46:19.199Z,34.03
2018-02-20T07:48:48.889Z,30.20
2018-02-20T07:51:18.388Z,30.75
2018-02-20T07:53:46.751Z,33.63
2018-02-20T07:56:14.328Z,33.13
2018-02-20T07:58:41.865Z,33.47
2018-02-20T08:01:09.493Z,32.25
2018-02-20T08:03:37.082Z,32.78
2018-02-20T08:06:04.735Z,34.22
2018-02-20T08:08:32.303Z,30.73
2018-02-20T08:11:00.671Z,28.67
2018-02-20T08:13:28.243Z,29.08
2018-02-20T08:15:56.150Z,27.62
2018-02-20T08:18:23.718Z,26.20
2018-02-20T08:20:51.296Z,29.42
2018-02-20T08:23:19.181Z,27.73
2018-02-20T08:25:47.416Z,27.42
2018-02-20T08:28:14.933Z,28.90
2018-02-20T08:30:42.620Z,28.60
2018-02-20T08:33:10.156Z,23.05
2018-02-20T08:35:37.715Z,24.48
2018-02-20T08:38:07.768Z,27.15
2018-02-20T08:40:35.335Z,23.85
2018-02-20T08:43:02.899Z,23.70
2018-02-20T08:45:31.519Z,19.85
2018-02-20T08:47:59.815Z,23.45
2018-02-20T08:50:27.379Z,20.95
2018-02-20T08:52:55.323Z,19.62
2018-02-20T08:55:22.889Z,19.08
2018-02-20T08:57:50.428Z,21.75
2018-02-20T09:00:19.046Z,23.85
2018-02-20T09:02:47.853Z,20.42
2018-02-20T09:05:15.923Z,21.40
2018-02-20T09:07:43.527Z,18.80
2018-02-20T09:10:11.218Z,18.58
2018-02-20T09:12:39.509Z,21.40
2018-02-20T09:15:07.205Z,18.45
2018-02-20T09:17:34.758Z,19.75
2018-02-20T09:20:02.317Z,21.08
2018-02-20T09:22:30.218Z,24.42
2018-02-20T09:24:59.088Z,24.95
2018-02-20T09:27:26.687Z,27.25
2018-02-20T09:29:54.447Z,26.00
2018-02-20T09:32:21.858Z,25.48
2018-02-20T09:34:49.401Z,25.88
2018-02-20T09:37:18.131Z,22.58
2018-02-20T09:39:47.041Z,23.85
2018-02-20T09:42:14.619Z,26.00
2018-02-20T09:44:42.973Z,26.12
2018-02-20T09:47:12.247Z,22.40
2018-02-20T09:49:39.794Z,21.58
2018-02-20T09:52:07.383Z,22.98
2018-02-20T09:54:34.937Z,24.20
2018-02-20T09:57:02.522Z,18.45
2018-02-20T09:59:30.076Z,20.17
2018-02-20T10:01:58.423Z,19.60
2018-02-20T10:04:25.988Z,19.02
2018-02-20T10:06:54.420Z,20.37
2018-02-20T10:09:21.957Z,22.10
2018-02-20T10:11:49.507Z,25.10
2018-02-20T10:14:17.699Z,25.77
2018-02-20T10:16:45.876Z,24.90
2018-02-20T10:19:13.473Z,30.85
2018-02-20T10:21:41.957Z,31.48
2018-02-20T10:24:09.528Z,30.55
2018-02-20T10:26:38.439Z,28.17
2018-02-20T10:29:06.001Z,34.25
2018-02-20T10:31:34.561Z,32.75
2018-02-20T10:34:02.155Z,28.05
2018-02-20T10:36:29.748Z,25.80
2018-02-20T10:38:57.292Z,29.92
2018-02-20T10:41:24.887Z,27.33
2018-02-20T10:43:52.789Z,28.50
2018-02-20T10:46:20.342Z,29.02
2018-02-20T10:48:50.572Z,27.50
2018-02-20T10:51:18.229Z,25.60
2018-02-20T10:53:46.541Z,30.55
2018-02-20T10:56:14.921Z,28.67
2018-02-20T10:58:43.248Z,30.48
2018-02-20T11:01:10.829Z,31.60
2018-02-20T11:03:40.090Z,29.00
2018-02-20T11:06:07.709Z,30.27
2018-02-20T11:08:35.311Z,30.33
2018-02-20T11:11:03.638Z,29.63
2018-02-20T11:13:31.612Z,29.77
2018-02-20T11:15:59.937Z,28.62
2018-02-20T11:18:27.697Z,29.00
2018-02-20T11:20:55.278Z,26.95
2018-02-20T11:23:23.631Z,29.20
2018-02-20T11:25:51.998Z,28.73
2018-02-20T11:28:20.756Z,28.70
2018-02-20T11:30:48.306Z,30.00
2018-02-20T11:33:16.707Z,29.30
2018-02-20T11:35:44.307Z,28.25
2018-02-20T11:38:11.883Z,27.48
2018-02-20T11:40:39.438Z,22.00
2018-02-20T11:43:07.057Z,24.05
2018-02-20T11:45:35.368Z,20.23
2018-02-20T11:48:02.943Z,22.02
2018-02-20T11:50:31.459Z,25.12
2018-02-20T11:52:59.820Z,21.42
2018-02-20T11:55:27.397Z,25.05
2018-02-20T11:57:55.063Z,23.00
2018-02-20T12:00:22.621Z,20.90
2018-02-20T12:02:51.357Z,22.83
2018-02-20T12:05:19.328Z,22.55
2018-02-20T12:07:47.722Z,23.83
2018-02-20T12:10:16.943Z,21.02
2018-02-20T12:12:45.911Z,25.00
2018-02-20T12:15:14.422Z,21.27
2018-02-20T12:17:42.337Z,20.10
2018-02-20T12:20:10.215Z,22.10
2018-02-20T12:22:37.788Z,21.77
2018-02-20T12:25:05.407Z,19.87
2018-02-20T12:27:32.985Z,19.40
2018-02-20T12:30:00.565Z,19.70
2018-02-20T12:32:28.105Z,20.02
2018-02-20T12:34:56.448Z,20.43
2018-02-20T12:37:23.990Z,17.37
2018-02-20T12:39:51.554Z,19.67
2018-02-20T12:42:21.044Z,19.03
2018-02-20T12:44:49.445Z,18.50
2018-02-20T12:47:17.410Z,22.33
2018-02-20T12:49:45.029Z,21.23
2018-02-20T12:52:12.689Z,19.40
2018-02-20T12:54:40.242Z,18.77
2018-02-20T12:57:07.888Z,21.35
2018-02-20T12:59:35.475Z,19.50
2018-02-20T13:02:05.782Z,20.73
2018-02-20T13:04:34.107Z,19.80
2018-02-20T13:07:02.609Z,20.70
2018-02-20T13:09:30.934Z,21.77
2018-02-20T13:11:58.504Z,21.20
2018-02-20T13:14:26.945Z,23.60
2018-02-20T13:16:54.490Z,22.10
2018-02-20T13:19:22.048Z,19.07
2018-02-20T13:21:49.613Z,17.67
2018-02-20T13:24:18.082Z,18.17
2018-02-20T13:26:45.932Z,22.33
2018-02-20T13:29:14.955Z,24.00
2018-02-20T13:31:42.534Z,23.75
2018-02-20T13:34:10.871Z,24.10
2018-02-20T13:36:38.734Z,22.17
2018-02-20T13:39:07.223Z,23.75
2018-02-20T13:41:35.562Z,24.55
2018-02-20T13:44:03.151Z,22.98
2018-02-20T13:46:30.791Z,21.10
2018-02-20T13:48:58.354Z,21.35
2018-02-20T13:51:25.942Z,21.23
2018-02-20T13:53:53.536Z,21.90
2018-02-20T13:56:21.075Z,21.33
2018-02-20T13:58:48.645Z,20.88
2018-02-20T14:01:19.071Z,18.95
2018-02-20T14:03:46.897Z,21.20
2018-02-20T14:06:14.465Z,21.30
2018-02-20T14:08:42.052Z,19.70
2018-02-20T14:11:09.609Z,22.65
2018-02-20T14:13:37.190Z,22.27
2018-02-20T14:16:04.761Z,22.77
2018-02-20T14:18:32.361Z,21.77
2018-02-20T14:20:59.942Z,24.77
2018-02-20T14:23:27.648Z,25.92
2018-02-20T14:25:55.199Z,25.62
2018-02-20T14:28:24.146Z,23.95
2018-02-20T14:30:51.684Z,24.67
2018-02-20T14:33:19.982Z,25.50
2018-02-20T14:35:48.827Z,27.45
2018-02-20T14:38:17.074Z,28.87
2018-02-20T14:40:44.694Z,24.52
2018-02-20T14:43:12.386Z,26.45
2018-02-20T14:45:39.994Z,25.70
2018-02-20T14:48:07.562Z,29.05
2018-02-20T14:50:36.038Z,26.00
2018-02-20T14:53:04.510Z,24.45
2018-02-20T14:55:32.127Z,25.42
2018-02-20T14:58:00.441Z,22.87
2018-02-20T15:00:28.025Z,24.45
2018-02-20T15:02:55.564Z,21.35
2018-02-20T15:05:23.153Z,23.23
2018-02-20T15:07:50.721Z,24.15
2018-02-20T15:10:18.306Z,22.95
2018-02-20T15:12:47.774Z,21.55
2018-02-20T15:15:15.860Z,23.67
2018-02-20T15:17:43.437Z,26.55
2018-02-20T15:20:11.041Z,25.20
2018-02-20T15:22:39.599Z,26.98
2018-02-20T15:25:07.178Z,25.08
2018-02-20T15:27:34.742Z,24.80
2018-02-20T15:30:02.293Z,24.40
2018-02-20T15:32:29.882Z,26.20
2018-02-20T15:34:58.192Z,25.50
2018-02-20T15:37:26.296Z,27.05
2018-02-20T15:39:54.679Z,26.40
2018-02-20T15:42:22.229Z,28.23
2018-02-20T15:44:49.770Z,28.95
2018-02-20T15:47:19.639Z,30.02
2018-02-20T15:49:48.072Z,29.90
2018-02-20T15:52:16.334Z,31.40
2018-02-20T15:54:44.050Z,28.80
2018-02-20T15:57:12.632Z,29.55
2018-02-20T15:59:40.168Z,27.30
2018-02-20T16:02:07.802Z,29.45
2018-02-20T16:04:35.374Z,29.27
2018-02-20T16:07:02.972Z,31.65
2018-02-20T16:09:31.330Z,32.30
2018-02-20T16:11:58.997Z,34.20
2018-02-20T16:14:27.402Z,31.10
2018-02-20T16:16:54.971Z,35.60
2018-02-20T16:19:22.552Z,36.45
2018-02-20T16:21:50.858Z,37.83
2018-02-20T16:24:18.492Z,36.53
2018-02-20T16:26:46.999Z,34.05
2018-02-20T16:29:14.593Z,36.20
2018-02-20T16:31:42.154Z,38.15
2018-02-20T16:34:09.771Z,35.42
2018-02-20T16:36:38.155Z,31.85
2018-02-20T16:39:05.732Z,36.92
2018-02-20T16:41:33.447Z,38.33
2018-02-20T16:44:01.059Z,41.72
2018-02-20T16:46:29.371Z,38.72
2018-02-20T16:48:56.910Z,39.03
2018-02-20T16:51:24.491Z,41.53
2018-02-20T16:53:53.216Z,39.00
2018-02-20T16:56:20.777Z,40.67
2018-02-20T16:58:49.354Z,39.33
2018-02-20T17:01:17.934Z,38.95
2018-02-20T17:03:46.060Z,41.08
2018-02-20T17:06:14.470Z,40.15
2018-02-20T17:08:42.024Z,38.08
2018-02-20T17:11:09.631Z,41.28
2018-02-20T17:13:37.228Z,37.10
2018-02-20T17:16:05.114Z,35.25
2018-02-20T17:18:32.657Z,36.00
2018-02-20T17:21:00.220Z,32.75
2018-02-20T17:23:28.724Z,28.52
2018-02-20T17:25:56.293Z,32.25
2018-02-20T17:28:23.866Z,29.33
2018-02-20T17:30:52.206Z,26.30
2018-02-20T17:33:19.775Z,26.67
2018-02-20T17:35:48.281Z,24.10
2018-02-20T17:38:16.619Z,25.05
2018-02-20T17:40:44.940Z,27.08
2018-02-20T17:43:13.354Z,25.05
2018-02-20T17:45:40.922Z,26.92
2018-02-20T17:48:08.574Z,32.08
2018-02-20T17:50:36.143Z,33.67
2018-02-20T17:53:04.627Z,36.40
2018-02-20T17:55:32.293Z,35.05
2018-02-20T17:57:59.867Z,40.15
2018-02-20T18:00:28.238Z,38.30
2018-02-20T18:02:55.780Z,33.58
2018-02-20T18:05:25.325Z,40.15
2018-02-20T18:07:53.830Z,40.63
2018-02-20T18:10:21.400Z,40.83
2018-02-20T18:12:48.946Z,40.35
2018-02-20T18:15:18.227Z,38.90
2018-02-20T18:17:48.462Z,34.17
2018-02-20T18:20:16.861Z,34.22
2018-02-20T18:22:44.419Z,35.00
2018-02-20T18:25:12.021Z,35.78
2018-02-20T18:27:39.650Z,33.83
2018-02-20T18:30:08.006Z,39.30
2018-02-20T18:32:35.589Z,35.60
2018-02-20T18:35:03.184Z,31.30
2018-02-20T18:37:32.723Z,35.35
2018-02-20T18:40:01.222Z,37.83
2018-02-20T18:42:28.779Z,37.75
2018-02-20T18:44:56.377Z,36.95
2018-02-20T18:47:25.648Z,38.60
2018-02-20T18:49:54.469Z,38.42
2018-02-20T18:52:22.028Z,38.72
2018-02-20T18:54:49.610Z,38.03
2018-02-20T18:57:19.191Z,39.28
2018-02-20T18:59:47.960Z,39.30
2018-02-20T19:02:15.818Z,35.75
2018-02-20T19:04:44.282Z,39.05
2018-02-20T19:07:11.825Z,39.05
2018-02-20T19:09:39.390Z,36.60
2018-02-20T19:12:07.751Z,39.20
2018-02-20T19:14:36.126Z,43.40
2018-02-20T19:17:03.693Z,38.90
2018-02-20T19:19:31.263Z,40.33
2018-02-20T19:21:58.954Z,39.85
2018-02-20T19:24:28.240Z,38.05
2018-02-20T19:26:55.785Z,41.22
2018-02-20T19:29:24.159Z,43.03
2018-02-20T19:31:52.464Z,40.97
2018-02-20T19:34:20.061Z,41.88
2018-02-20T19:36:49.043Z,40.47
2018-02-20T19:39:16.993Z,40.80
2018-02-20T19:41:44.550Z,42.90
2018-02-20T19:44:12.176Z,38.35
2018-02-20T19:46:40.500Z,39.95
2018-02-20T19:49:08.167Z,43.50
2018-02-20T19:51:36.811Z,37.22
2018-02-20T19:54:04.361Z,42.15
2018-02-20T19:56:31.991Z,43.42
2018-02-20T19:58:59.547Z,42.75
2018-02-20T20:01:27.152Z,42.03
2018-02-20T20:03:55.500Z,42.83
2018-02-20T20:06:23.115Z,45.03
2018-02-20T20:08:51.429Z,43.67
2018-02-20T20:11:19.763Z,38.45
2018-02-20T20:13:48.323Z,40.40
2018-02-20T20:16:17.469Z,38.30
2018-02-20T20:18:46.827Z,41.08
2018-02-20T20:21:14.370Z,41.08
2018-02-20T20:23:42.754Z,41.95
2018-02-20T20:26:10.391Z,39.05
2018-02-20T20:28:38.023Z,37.83
2018-02-20T20:31:06.514Z,40.50
2018-02-20T20:33:34.175Z,39.08
2018-02-20T20:36:01.773Z,42.70
2018-02-20T20:38:31.378Z,43.30
2018-02-20T20:41:01.071Z,40.08
2018-02-20T20:43:31.453Z,43.15
2018-02-20T20:45:59.161Z,41.47
2018-02-20T20:48:26.763Z,41.67
2018-02-20T20:50:55.241Z,43.30
2018-02-20T20:53:24.526Z,38.88
2018-02-20T20:55:52.862Z,38.33
2018-02-20T20:58:20.447Z,40.22
2018-02-20T21:00:48.793Z,40.38
2018-02-20T21:03:17.988Z,41.88
2018-02-20T21:05:45.905Z,41.25
2018-02-20T21:08:13.472Z,38.17
2018-02-20T21:10:41.776Z,42.40
2018-02-20T21:13:09.405Z,38.72
2018-02-20T21:15:36.945Z,34.78
2018-02-20T21:18:04.544Z,42.90
2018-02-20T21:20:32.121Z,43.55
2018-02-20T21:22:59.693Z,40.33
2018-02-20T21:25:27.256Z,40.58
2018-02-20T21:27:55.655Z,39.60
2018-02-20T21:30:23.953Z,36.95
2018-02-20T21:32:51.529Z,39.65
2018-02-20T21:35:19.196Z,40.65
2018-02-20T21:37:49.102Z,43.65
2018-02-20T21:40:18.259Z,41.92
2018-02-20T21:42:46.687Z,38.08
2018-02-20T21:45:14.299Z,39.75
2018-02-20T21:47:41.868Z,42.45
2018-02-20T21:50:10.328Z,42.33
2018-02-20T21:52:37.918Z,37.92
2018-02-20T21:55:05.508Z,41.45
2018-02-20T21:57:33.152Z,41.08
2018-02-20T22:00:01.635Z,41.45
2018-02-20T22:02:30.085Z,40.22
2018-02-20T22:04:57.663Z,37.92
2018-02-20T22:07:25.208Z,39.55
2018-02-20T22:09:53.724Z,40.53
2018-02-20T22:12:21.290Z,41.83
2018-02-20T22:14:48.927Z,42.78
2018-02-20T22:17:16.910Z,39.55
2018-02-20T22:19:44.511Z,41.25
2018-02-20T22:22:12.053Z,45.65
2018-02-20T22:24:40.542Z,42.97
2018-02-20T22:27:08.092Z,45.05
2018-02-20T22:29:35.648Z,42.28
2018-02-20T22:32:03.236Z,40.90
2018-02-20T22:34:31.551Z,46.22
2018-02-20T22:37:00.060Z,47.60
2018-02-20T22:39:27.628Z,48.63
2018-02-20T22:41:55.201Z,45.70
2018-02-20T22:44:22.760Z,47.22
2018-02-20T22:46:50.343Z,41.13
2018-02-20T22:49:18.475Z,47.05
2018-02-20T22:51:47.556Z,45.15
2018-02-20T22:54:16.573Z,45.38
2018-02-20T22:56:44.243Z,44.72
2018-02-20T22:59:11.787Z,46.80
2018-02-20T23:01:39.425Z,45.55
2018-02-20T23:04:07.726Z,42.78
2018-02-20T23:06:35.273Z,44.08
2018-02-20T23:09:02.895Z,43.33
2018-02-20T23:11:42.874Z,42.47
2018-02-20T23:14:10.447Z,43.40
2018-02-20T23:16:38.755Z,46.75
2018-02-20T23:19:07.260Z,44.92
2018-02-20T23:21:34.848Z,45.40
2018-02-20T23:24:03.688Z,42.92
2018-02-20T23:26:31.221Z,45.83
2018-02-20T23:28:58.755Z,41.75
2018-02-20T23:31:26.342Z,42.90
2018-02-20T23:33:53.947Z,44.22
2018-02-20T23:36:21.551Z,44.58
2018-02-20T23:38:49.086Z,40.72
2018-02-20T23:41:17.699Z,44.72
2018-02-20T23:43:45.909Z,44.63
2018-02-20T23:46:13.469Z,46.78
2018-02-20T23:48:41.777Z,43.78
2018-02-20T23:51:15.865Z,40.80
2018-02-20T23:53:43.398Z,44.63
2018-02-20T23:56:10.942Z,43.17
2018-02-20T23:58:38.539Z,41.40
